Time;durP1;ratioP1;P1;durP2;ratioP2;P2;SDS_P1;SDS_P2;PMS_P1;PMS_P2;Temp;Humidity;BMP_temperature;BMP_pressure;BME280_temperature;BME280_humidity;BME280_pressure;Samples;Min_cycle;Max_cycle;Signal;HPM_P1;HPM_P2
2022/12/18 00:03:21;;;;;;;53.63;28.03;;;;;-4.40;100247.00;;;;16763340;28;20230;-46
2022/12/18 00:11:27;;;;;;;51.93;27.87;;;;;-4.30;100262.00;;;;16773681;28;20241;-47
2022/12/18 00:19:30;;;;;;;53.73;28.20;;;;;-4.40;100250.00;;;;16799731;28;20278;-49
2022/12/18 00:27:33;;;;;;;53.87;28.20;;;;;-5.00;100267.00;;;;16792646;28;20220;-47
2022/12/18 00:35:36;;;;;;;52.20;29.20;;;;;-4.20;100248.00;;;;16751482;28;20781;-46
2022/12/18 00:43:40;;;;;;;68.80;31.90;;;;;-3.70;100246.00;;;;16749678;28;20316;-47
2022/12/18 00:51:43;;;;;;;56.57;33.30;;;;;-3.80;100251.00;;;;16777240;28;20235;-47
2022/12/18 00:59:47;;;;;;;53.23;31.00;;;;;-3.30;100240.00;;;;16801559;28;20217;-46
2022/12/18 01:07:49;;;;;;;55.90;31.13;;;;;-3.30;100248.00;;;;16810580;28;20227;-47
2022/12/18 01:15:53;;;;;;;55.33;27.60;;;;;-4.40;100271.00;;;;16810416;28;20883;-48
2022/12/18 01:23:57;;;;;;;51.73;29.13;;;;;-5.00;100283.00;;;;16791851;28;20263;-46
2022/12/18 01:32:01;;;;;;;51.37;27.63;;;;;-4.50;100274.00;;;;16788059;28;20213;-45
2022/12/18 01:40:07;;;;;;;75.87;36.53;;;;;-4.40;100268.00;;;;16789195;28;20224;-45
2022/12/18 01:48:11;;;;;;;55.80;29.00;;;;;-3.20;100253.00;;;;16813651;28;20609;-48
2022/12/18 01:56:15;;;;;;;59.83;32.43;;;;;-3.00;100251.00;;;;16819306;28;20732;-47
2022/12/18 02:04:24;;;;;;;65.70;33.50;;;;;-2.90;100241.00;;;;16790376;28;20201;-45
2022/12/18 02:12:31;;;;;;;60.90;31.57;;;;;-3.20;100236.00;;;;16809431;28;20296;-47
2022/12/18 02:20:37;;;;;;;49.97;27.00;;;;;-3.80;100255.00;;;;16800171;28;20232;-45
2022/12/18 02:28:43;;;;;;;53.80;31.83;;;;;-2.90;100243.00;;;;16810605;28;20212;-46
2022/12/18 02:36:48;;;;;;;64.03;32.17;;;;;-3.80;100274.00;;;;16798214;28;20220;-47
2022/12/18 02:44:56;;;;;;;53.83;27.97;;;;;-3.00;100262.00;;;;16797318;28;20216;-45
2022/12/18 02:53:11;;;;;;;58.47;30.30;;;;;-2.90;100267.00;;;;16800538;28;20332;-47
2022/12/18 03:01:17;;;;;;;54.17;31.27;;;;;-3.30;100272.00;;;;16791368;28;20239;-47
2022/12/18 03:09:31;;;;;;;51.67;27.00;;;;;-3.20;100268.00;;;;16794718;28;20213;-46
2022/12/18 03:17:36;;;;;;;52.00;28.37;;;;;-3.00;100268.00;;;;16805678;28;20221;-46
2022/12/18 03:25:41;;;;;;;42.83;24.70;;;;;-3.80;100296.00;;;;16819515;28;20193;-46
2022/12/18 03:33:48;;;;;;;48.67;25.53;;;;;-4.90;100325.00;;;;16810573;28;20731;-47
2022/12/18 03:41:59;;;;;;;46.40;24.97;;;;;-3.90;100303.00;;;;16808207;28;20225;-46
2022/12/18 03:50:14;;;;;;;55.93;28.53;;;;;-4.20;100303.00;;;;16809974;28;20217;-47
2022/12/18 03:58:24;;;;;;;39.80;21.73;;;;;-4.70;100315.00;;;;16801032;28;20237;-46
2022/12/18 04:06:39;;;;;;;42.57;22.97;;;;;-5.50;100338.00;;;;16805299;28;20217;-45
2022/12/18 04:14:41;;;;;;;44.60;23.63;;;;;-5.10;100321.00;;;;16821431;28;20195;-45
2022/12/18 04:22:47;;;;;;;44.90;25.07;;;;;-5.20;100323.00;;;;16814624;28;20224;-46
2022/12/18 04:30:50;;;;;;;46.23;24.07;;;;;-5.80;100336.00;;;;16796712;28;20280;-46
2022/12/18 04:38:54;;;;;;;44.97;23.43;;;;;-4.80;100334.00;;;;16815364;28;20228;-44
2022/12/18 04:46:58;;;;;;;43.10;24.70;;;;;-4.50;100331.00;;;;16805388;28;20224;-45
2022/12/18 04:55:01;;;;;;;46.50;24.47;;;;;-4.00;100301.00;;;;16816701;28;20292;-46
2022/12/18 05:03:04;;;;;;;46.07;22.73;;;;;-3.90;100298.00;;;;16827190;28;20224;-46
2022/12/18 05:11:10;;;;;;;46.90;23.83;;;;;-4.00;100295.00;;;;16820964;28;20217;-46
2022/12/18 05:19:13;;;;;;;34.73;21.63;;;;;-3.90;100300.00;;;;16830624;28;20217;-47
2022/12/18 05:27:19;;;;;;;34.87;21.60;;;;;-4.10;100324.00;;;;16789378;28;20217;-45
2022/12/18 05:35:21;;;;;;;36.67;23.80;;;;;-3.90;100320.00;;;;16777565;28;20729;-45
2022/12/18 05:43:26;;;;;;;41.53;22.37;;;;;-4.00;100320.00;;;;16772600;28;20240;-47
2022/12/18 05:51:28;;;;;;;40.17;22.53;;;;;-5.20;100355.00;;;;16777880;28;20231;-46
2022/12/18 05:59:32;;;;;;;39.30;24.00;;;;;-4.80;100344.00;;;;16774190;28;20253;-47
2022/12/18 06:07:35;;;;;;;55.03;30.00;;;;;-4.20;100332.00;;;;16793084;28;20746;-46
2022/12/18 06:15:39;;;;;;;44.83;25.30;;;;;-4.20;100330.00;;;;16790291;28;20220;-46
2022/12/18 06:23:41;;;;;;;42.10;24.90;;;;;-4.80;100343.00;;;;16788052;28;20227;-47
2022/12/18 06:31:45;;;;;;;26.97;17.23;;;;;-5.40;100361.00;;;;16792501;28;20618;-46
2022/12/18 06:39:48;;;;;;;24.97;14.30;;;;;-6.10;100396.00;;;;16784141;28;20230;-46
2022/12/18 06:47:52;;;;;;;28.93;18.10;;;;;-6.40;100404.00;;;;16763131;28;20663;-46
2022/12/18 06:55:59;;;;;;;31.13;18.10;;;;;-6.60;100405.00;;;;16827825;28;20220;-45
2022/12/18 07:04:03;;;;;;;34.33;19.60;;;;;-6.40;100399.00;;;;16790630;28;20232;-46
2022/12/18 07:12:07;;;;;;;37.90;19.87;;;;;-6.10;100411.00;;;;16750034;28;20225;-45
2022/12/18 07:29:34;;;;;;;40.77;26.83;;;;;-1.10;100316.00;;;;16768984;28;20213;-46
2022/12/18 07:37:36;;;;;;;44.90;28.00;;;;;-3.40;100363.00;;;;16751425;28;20221;-47
2022/12/18 07:45:40;;;;;;;46.53;23.93;;;;;-3.80;100372.00;;;;16758227;28;20208;-46
2022/12/18 07:53:43;;;;;;;39.20;23.13;;;;;-4.10;100392.00;;;;16775520;28;20233;-46
2022/12/18 08:01:46;;;;;;;39.50;25.53;;;;;-5.30;100413.00;;;;16817824;28;20706;-47
2022/12/18 08:09:49;;;;;;;36.53;20.70;;;;;-4.50;100393.00;;;;16769785;28;20217;-46
2022/12/18 08:17:53;;;;;;;28.10;15.47;;;;;-4.10;100390.00;;;;16776124;28;20225;-46
2022/12/18 08:25:55;;;;;;;37.80;20.90;;;;;-3.90;100385.00;;;;16770763;28;20675;-47
2022/12/18 08:33:59;;;;;;;37.37;21.83;;;;;-3.50;100370.00;;;;16771410;28;20221;-46
2022/12/18 08:50:23;;;;;;;38.00;22.97;;;;;-3.30;100370.00;;;;16746714;28;20292;-47
2022/12/18 08:58:25;;;;;;;41.20;26.27;;;;;-3.40;100372.00;;;;16763087;28;20316;-48
2022/12/18 09:06:29;;;;;;;28.07;18.63;;;;;-3.70;100359.00;;;;16755414;28;20205;-46
2022/12/18 09:14:31;;;;;;;41.80;24.40;;;;;-3.80;100359.00;;;;16757779;28;20204;-45
2022/12/18 09:22:35;;;;;;;43.17;25.20;;;;;-3.40;100349.00;;;;16760354;28;20718;-45
2022/12/18 09:30:39;;;;;;;38.20;24.07;;;;;-3.00;100331.00;;;;16778677;28;20223;-47
2022/12/18 09:38:43;;;;;;;45.80;29.53;;;;;-2.90;100318.00;;;;16734828;28;20721;-46
2022/12/18 09:46:48;;;;;;;43.43;29.10;;;;;-2.90;100314.00;;;;16764214;28;20221;-46
2022/12/18 09:54:56;;;;;;;46.30;30.60;;;;;-2.10;100292.00;;;;16755137;28;20208;-46
2022/12/18 10:03:02;;;;;;;49.80;24.97;;;;;-1.80;100283.00;;;;16764912;28;20279;-47
2022/12/18 10:11:25;;;;;;;80.37;41.23;;;;;-1.60;100270.00;;;;16782973;28;20221;-47
2022/12/18 10:19:48;;;;;;;48.13;31.20;;;;;-1.00;100273.00;;;;16773440;28;20232;-46
2022/12/18 10:27:55;;;;;;;49.60;29.50;;;;;-0.50;100271.00;;;;16709576;22;20305;-70
2022/12/18 10:35:58;;;;;;;41.50;28.60;;;;;0.80;100245.00;;;;16683046;28;20322;-70
2022/12/18 10:44:18;;;;;;;49.50;30.80;;;;;1.10;100246.00;;;;16702310;28;20239;-69
2022/12/18 10:52:22;;;;;;;46.47;29.07;;;;;1.50;100239.00;;;;16701119;28;21284;-69
2022/12/18 11:00:28;;;;;;;51.53;29.97;;;;;1.50;100243.00;;;;16683931;28;20269;-70
2022/12/18 11:08:31;;;;;;;65.77;33.83;;;;;1.20;100240.00;;;;16719205;28;20268;-69
2022/12/18 11:16:43;;;;;;;43.83;28.93;;;;;2.00;100218.00;;;;16718761;28;20217;-68
2022/12/18 11:24:56;;;;;;;46.30;30.00;;;;;2.20;100198.00;;;;16709388;28;20837;-69
2022/12/18 11:33:05;;;;;;;50.93;29.20;;;;;3.30;100169.00;;;;16730409;28;20249;-68
2022/12/18 11:41:22;;;;;;;46.27;29.20;;;;;3.90;100155.00;;;;16726808;28;20253;-68
2022/12/18 11:49:29;;;;;;;49.23;31.40;;;;;4.10;100150.00;;;;16737702;28;20269;-69
2022/12/18 11:57:37;;;;;;;49.10;29.07;;;;;4.50;100138.00;;;;16722224;28;20310;-67
2022/12/18 12:05:47;;;;;;;45.30;30.20;;;;;4.80;100122.00;;;;16739612;28;20221;-68
2022/12/18 12:14:14;;;;;;;56.93;34.20;;;;;4.50;100115.00;;;;16728403;28;20301;-69
2022/12/18 12:22:24;;;;;;;47.53;33.50;;;;;4.40;100110.00;;;;16714151;28;20222;-71
2022/12/18 12:30:31;;;;;;;49.13;31.90;;;;;5.30;100095.00;;;;16715024;28;20194;-69
2022/12/18 12:38:38;;;;;;;72.63;42.77;;;;;4.70;100093.00;;;;16707712;28;20716;-68
2022/12/18 12:46:42;;;;;;;55.10;33.47;;;;;5.20;100101.00;;;;16699166;28;20347;-69
2022/12/18 12:54:47;;;;;;;50.53;31.33;;;;;5.30;100093.00;;;;16713018;28;20237;-68
2022/12/18 13:02:53;;;;;;;47.20;28.97;;;;;6.30;100105.00;;;;16711887;28;20260;-70
2022/12/18 13:19:25;;;;;;;57.03;36.27;;;;;5.70;100110.00;;;;16707455;28;20221;-69
2022/12/18 13:28:03;;;;;;;43.40;29.23;;;;;6.60;100097.00;;;;16705593;28;20838;-70
2022/12/18 13:36:16;;;;;;;64.10;35.43;;;;;6.60;100088.00;;;;16723233;28;20335;-69
2022/12/18 13:44:27;;;;;;;44.00;29.17;;;;;7.00;100074.00;;;;16726291;28;20237;-69
2022/12/18 13:52:36;;;;;;;38.60;25.57;;;;;6.30;100083.00;;;;16706172;28;20818;-68
2022/12/18 14:00:43;;;;;;;45.70;26.20;;;;;5.80;100092.00;;;;16676380;28;20823;-70
2022/12/18 14:08:47;;;;;;;46.53;31.17;;;;;5.20;100090.00;;;;16680942;28;20211;-70
2022/12/18 14:16:50;;;;;;;43.83;29.03;;;;;5.70;100087.00;;;;16695677;28;20343;-70
2022/12/18 14:25:21;;;;;;;37.53;26.40;;;;;5.20;100099.00;;;;16688946;28;20283;-69
2022/12/18 14:33:24;;;;;;;41.23;27.67;;;;;5.20;100100.00;;;;16722443;28;20889;-68
2022/12/18 14:41:29;;;;;;;38.20;24.77;;;;;4.90;100111.00;;;;16722581;28;20218;-68
2022/12/18 14:49:32;;;;;;;48.53;29.10;;;;;4.90;100105.00;;;;16698413;28;20690;-68
2022/12/18 14:57:40;;;;;;;49.27;31.03;;;;;4.80;100125.00;;;;16715074;28;20233;-68
2022/12/18 15:05:43;;;;;;;52.17;31.30;;;;;4.30;100120.00;;;;16697803;28;20221;-71
2022/12/18 15:13:47;;;;;;;48.93;30.80;;;;;4.00;100125.00;;;;16709571;28;20217;-68
2022/12/18 15:21:50;;;;;;;47.90;30.77;;;;;3.80;100127.00;;;;16705267;28;20253;-69
2022/12/18 15:30:21;;;;;;;46.77;30.13;;;;;3.60;100127.00;;;;16718581;28;20228;-67
2022/12/18 15:38:24;;;;;;;56.40;35.37;;;;;3.10;100118.00;;;;16727438;28;20636;-68
2022/12/18 15:46:28;;;;;;;47.13;31.40;;;;;1.70;100153.00;;;;16740017;28;20222;-69
2022/12/18 16:02:52;;;;;;;44.97;29.33;;;;;1.50;100150.00;;;;16738313;28;20243;-68
2022/12/18 16:10:54;;;;;;;52.27;30.70;;;;;0.80;100170.00;;;;16686425;28;20206;-68
2022/12/18 16:18:58;;;;;;;42.87;27.43;;;;;0.50;100168.00;;;;16751194;22;20582;-46
2022/12/18 16:27:01;;;;;;;47.27;30.50;;;;;0.40;100164.00;;;;16771461;28;20227;-47
2022/12/18 16:35:06;;;;;;;57.30;33.40;;;;;0.80;100156.00;;;;16746339;28;20714;-46
2022/12/18 16:43:08;;;;;;;48.30;28.40;;;;;0.30;100158.00;;;;16770020;28;20224;-45
2022/12/18 16:51:12;;;;;;;51.90;28.73;;;;;0.20;100158.00;;;;16758574;28;20228;-45
2022/12/18 16:59:15;;;;;;;50.70;30.73;;;;;1.10;100156.00;;;;16747275;28;20599;-46
2022/12/18 17:07:19;;;;;;;45.43;28.03;;;;;1.90;100122.00;;;;16747491;28;20223;-45
2022/12/18 17:15:21;;;;;;;51.33;30.60;;;;;2.60;100112.00;;;;16755081;28;20288;-46
2022/12/18 17:23:25;;;;;;;42.27;27.43;;;;;2.70;100105.00;;;;16755444;28;20738;-46
2022/12/18 17:31:30;;;;;;;59.83;31.47;;;;;2.60;100101.00;;;;16735804;28;20199;-46
2022/12/18 17:39:33;;;;;;;62.00;39.50;;;;;2.60;100100.00;;;;16755123;28;20238;-46
2022/12/18 17:47:36;;;;;;;41.40;26.80;;;;;2.30;100100.00;;;;16748475;28;20716;-45
2022/12/18 17:55:40;;;;;;;42.33;27.13;;;;;2.70;100109.00;;;;16766235;28;20228;-46
2022/12/18 18:03:43;;;;;;;53.40;30.77;;;;;2.40;100104.00;;;;16771930;28;20323;-47
2022/12/18 18:20:07;;;;;;;50.77;28.10;;;;;2.50;100100.00;;;;16750304;28;20225;-46
2022/12/18 18:28:11;;;;;;;44.90;27.40;;;;;2.60;100091.00;;;;16768954;28;20227;-45
2022/12/18 18:36:14;;;;;;;42.53;26.13;;;;;2.70;100096.00;;;;16762762;28;20254;-46
2022/12/18 18:44:19;;;;;;;46.97;25.60;;;;;2.80;100085.00;;;;16720084;28;20229;-46
2022/12/18 18:52:21;;;;;;;47.30;29.40;;;;;2.70;100063.00;;;;16734918;28;20220;-46
2022/12/18 19:00:25;;;;;;;49.37;29.40;;;;;2.20;100085.00;;;;16745347;28;20214;-46
2022/12/18 19:08:29;;;;;;;47.80;30.03;;;;;2.30;100085.00;;;;16731850;28;20710;-46
2022/12/18 19:16:34;;;;;;;45.90;28.37;;;;;2.20;100085.00;;;;16749675;28;20232;-47
2022/12/18 19:24:37;;;;;;;48.93;31.80;;;;;2.00;100073.00;;;;16734003;28;20221;-46
2022/12/18 19:32:42;;;;;;;50.73;32.10;;;;;1.90;100062.00;;;;16731324;28;20255;-45
2022/12/18 19:40:45;;;;;;;40.67;27.30;;;;;2.10;100062.00;;;;16744562;28;20355;-46
2022/12/18 19:48:50;;;;;;;41.40;26.80;;;;;2.10;100052.00;;;;16747221;28;20217;-46
2022/12/18 19:56:52;;;;;;;44.30;27.67;;;;;2.00;100058.00;;;;16754858;28;20236;-47
2022/12/18 20:04:56;;;;;;;47.23;30.10;;;;;2.30;100020.00;;;;16766958;28;20249;-47
2022/12/18 20:12:58;;;;;;;46.83;26.50;;;;;2.10;100030.00;;;;16756052;28;20804;-46
2022/12/18 20:21:02;;;;;;;40.10;24.13;;;;;2.10;100011.00;;;;16759717;28;20327;-46
2022/12/18 20:29:05;;;;;;;42.47;27.77;;;;;2.00;99996.00;;;;16756346;28;20307;-46
2022/12/18 20:37:09;;;;;;;46.10;27.47;;;;;1.90;99982.00;;;;16772393;28;20584;-46
2022/12/18 20:45:11;;;;;;;43.50;25.17;;;;;2.00;99980.00;;;;16764404;28;20232;-47
2022/12/18 20:53:15;;;;;;;39.43;25.40;;;;;2.10;99982.00;;;;16783227;28;20600;-47
2022/12/18 21:01:19;;;;;;;48.57;27.60;;;;;2.00;99988.00;;;;16770464;28;20302;-46
2022/12/18 21:09:23;;;;;;;45.50;27.03;;;;;2.20;99978.00;;;;16735306;28;20708;-47
2022/12/18 21:17:26;;;;;;;58.90;32.27;;;;;2.10;99987.00;;;;16756985;28;20692;-47
2022/12/18 21:25:30;;;;;;;45.83;27.23;;;;;2.10;99998.00;;;;16761806;28;20346;-47
2022/12/18 21:33:32;;;;;;;46.40;27.47;;;;;2.20;99988.00;;;;16765189;28;20222;-46
2022/12/18 21:49:56;;;;;;;46.13;27.70;;;;;2.20;99994.00;;;;16771928;28;20364;-47
2022/12/18 21:58:00;;;;;;;53.23;30.37;;;;;1.40;99973.00;;;;16743895;28;20577;-46
2022/12/18 22:06:04;;;;;;;56.13;30.33;;;;;1.70;99975.00;;;;16745781;28;20288;-46
2022/12/18 22:14:08;;;;;;;58.27;30.60;;;;;1.90;99967.00;;;;16737732;28;20296;-47
2022/12/18 22:22:11;;;;;;;46.63;29.37;;;;;2.00;99956.00;;;;16737722;28;20230;-46
2022/12/18 22:30:15;;;;;;;41.73;26.17;;;;;2.40;99964.00;;;;16755241;28;20586;-47
2022/12/18 22:38:17;;;;;;;48.30;29.63;;;;;2.30;99960.00;;;;16770401;28;20683;-46
2022/12/18 22:46:23;;;;;;;47.97;27.80;;;;;2.40;99948.00;;;;16748901;28;20222;-46
2022/12/18 22:54:25;;;;;;;45.43;25.73;;;;;2.20;99931.00;;;;16734178;28;20309;-47
2022/12/18 23:02:29;;;;;;;45.60;26.50;;;;;2.30;99961.00;;;;16743808;28;20243;-47
2022/12/18 23:10:32;;;;;;;45.60;28.60;;;;;2.60;99961.00;;;;16732499;28;20199;-47
2022/12/18 23:18:36;;;;;;;49.40;28.13;;;;;2.70;99967.00;;;;16723942;28;20229;-47
2022/12/18 23:26:39;;;;;;;47.73;26.60;;;;;2.40;99956.00;;;;16733484;28;20304;-47
2022/12/18 23:34:43;;;;;;;46.27;26.57;;;;;2.30;99964.00;;;;16730605;28;20300;-47
2022/12/18 23:42:46;;;;;;;45.40;26.63;;;;;2.20;99953.00;;;;16767925;28;20221;-46
2022/12/18 23:50:49;;;;;;;49.40;31.00;;;;;2.10;99951.00;;;;16764622;28;20192;-46
2022/12/18 23:58:52;;;;;;;44.10;29.50;;;;;2.00;99951.00;;;;16763316;28;20223;-47
